createdAt,value
2019-04-26T00:01:59.965Z,31.33
2019-04-26T00:04:29.187Z,21.37
2019-04-26T00:06:58.129Z,23.70
2019-04-26T00:09:40.385Z,23.50
2019-04-26T00:12:19.957Z,21.27
2019-04-26T00:14:50.747Z,26.97
2019-04-26T00:17:24.226Z,23.23
2019-04-26T00:19:53.535Z,27.53
2019-04-26T00:22:22.916Z,27.07
2019-04-26T00:24:51.817Z,23.87
2019-04-26T00:27:21.292Z,26.47
2019-04-26T00:29:50.282Z,28.33
2019-04-26T00:32:19.256Z,25.73
2019-04-26T00:34:48.234Z,23.90
2019-04-26T00:37:17.951Z,25.27
2019-04-26T00:39:46.994Z,28.20
2019-04-26T00:42:16.574Z,28.90
2019-04-26T00:44:45.579Z,21.80
2019-04-26T00:47:15.294Z,26.70
2019-04-26T00:49:44.750Z,29.90
2019-04-26T00:52:14.632Z,31.63
2019-04-26T00:54:45.599Z,24.47
2019-04-26T00:57:16.004Z,25.00
2019-04-26T00:59:45.363Z,28.47
2019-04-26T01:02:16.666Z,29.37
2019-04-26T01:04:45.712Z,29.37
2019-04-26T01:07:15.585Z,23.40
2019-04-26T01:09:44.672Z,29.83
2019-04-26T01:12:13.569Z,27.23
2019-04-26T01:14:42.546Z,28.87
2019-04-26T01:17:11.461Z,31.73
2019-04-26T01:19:42.428Z,27.90
2019-04-26T01:22:14.273Z,32.37
2019-04-26T01:24:45.581Z,26.30
2019-04-26T01:27:17.119Z,26.20
2019-04-26T01:29:49.682Z,34.00
2019-04-26T01:32:20.271Z,29.57
2019-04-26T01:34:51.354Z,31.50
2019-04-26T01:37:20.618Z,31.70
2019-04-26T01:39:54.326Z,29.17
2019-04-26T01:42:26.393Z,24.27
2019-04-26T01:45:05.671Z,26.17
2019-04-26T01:47:34.979Z,25.10
2019-04-26T01:50:04.230Z,26.87
2019-04-26T01:52:33.156Z,26.60
2019-04-26T01:55:02.207Z,26.50
2019-04-26T01:57:32.136Z,27.97
2019-04-26T02:00:05.096Z,27.60
2019-04-26T02:02:38.566Z,24.90
2019-04-26T02:05:22.500Z,28.13
2019-04-26T02:07:51.769Z,24.13
2019-04-26T02:10:24.048Z,24.23
2019-04-26T02:12:55.652Z,25.40
2019-04-26T02:15:27.535Z,29.00
2019-04-26T02:17:57.939Z,29.40
2019-04-26T02:20:46.409Z,26.63
2019-04-26T02:23:23.627Z,28.27
2019-04-26T02:25:53.491Z,31.13
2019-04-26T02:28:22.393Z,30.13
2019-04-26T02:30:51.542Z,30.30
2019-04-26T02:33:20.972Z,31.30
2019-04-26T02:35:49.904Z,29.40
2019-04-26T02:38:19.309Z,26.07
2019-04-26T02:40:49.556Z,30.13
2019-04-26T02:43:20.863Z,27.30
2019-04-26T02:45:54.968Z,35.47
2019-04-26T02:48:37.938Z,31.50
2019-04-26T02:51:16.174Z,30.80
2019-04-26T02:54:07.589Z,28.43
2019-04-26T02:56:42.084Z,30.80
2019-04-26T02:59:13.942Z,27.63
2019-04-26T03:01:43.006Z,35.07
2019-04-26T03:04:11.916Z,28.33
2019-04-26T03:06:43.034Z,28.53
2019-04-26T03:09:13.903Z,29.20
2019-04-26T03:11:45.798Z,30.70
2019-04-26T03:14:18.796Z,32.83
2019-04-26T03:17:09.957Z,28.20
2019-04-26T03:19:55.469Z,28.10
2019-04-26T03:22:40.691Z,31.80
2019-04-26T03:25:38.233Z,31.77
2019-04-26T03:28:19.351Z,34.87
2019-04-26T03:30:56.828Z,35.33
2019-04-26T03:33:53.233Z,31.20
2019-04-26T03:36:42.138Z,30.93
2019-04-26T03:39:14.987Z,33.40
2019-04-26T03:42:03.411Z,35.33
2019-04-26T03:44:40.076Z,32.07
2019-04-26T03:47:11.900Z,28.47
2019-04-26T03:50:09.560Z,33.37
2019-04-26T03:52:58.398Z,32.00
2019-04-26T03:55:32.456Z,30.07
2019-04-26T03:58:18.139Z,27.83
2019-04-26T04:00:57.892Z,29.87
2019-04-26T04:03:39.279Z,25.37
2019-04-26T04:06:12.345Z,26.67
2019-04-26T04:08:56.219Z,26.07
2019-04-26T04:11:28.104Z,29.00
2019-04-26T04:14:06.367Z,32.10
2019-04-26T04:16:51.877Z,25.40
2019-04-26T04:19:34.411Z,26.23
2019-04-26T04:22:06.350Z,24.53
2019-04-26T04:24:45.419Z,28.10
2019-04-26T04:27:20.596Z,26.20
2019-04-26T04:29:55.190Z,26.43
2019-04-26T04:32:28.914Z,32.37
2019-04-26T04:35:00.753Z,27.93
2019-04-26T04:37:32.667Z,28.63
2019-04-26T04:40:21.103Z,29.57
2019-04-26T04:43:15.434Z,29.20
2019-04-26T04:46:04.282Z,29.83
2019-04-26T04:48:56.219Z,27.50
2019-04-26T04:52:00.074Z,31.30
2019-04-26T04:54:41.515Z,32.77
2019-04-26T04:57:17.755Z,26.90
2019-04-26T05:00:06.411Z,30.97
2019-04-26T05:02:57.915Z,39.53
2019-04-26T05:06:06.621Z,36.60
2019-04-26T05:08:30.210Z,33.40
2019-04-26T05:11:13.943Z,33.20
2019-04-26T05:13:57.799Z,34.10
2019-04-26T05:16:40.284Z,36.63
2019-04-26T05:19:28.857Z,37.80
2019-04-26T05:22:06.402Z,33.30
2019-04-26T05:24:38.359Z,31.10
2019-04-26T05:27:33.139Z,33.87
2019-04-26T05:30:09.587Z,33.10
2019-04-26T05:33:07.102Z,35.13
2019-04-26T05:36:00.379Z,37.37
2019-04-26T05:38:41.496Z,33.47
2019-04-26T05:41:31.310Z,36.10
2019-04-26T05:44:21.459Z,35.17
2019-04-26T05:47:01.084Z,34.97
2019-04-26T05:50:14.247Z,33.63
2019-04-26T05:52:51.333Z,40.83
2019-04-26T05:55:45.572Z,39.23
2019-04-26T05:58:20.146Z,39.83
2019-04-26T06:01:13.041Z,35.17
2019-04-26T06:04:25.278Z,33.83
2019-04-26T06:07:28.641Z,38.03
2019-04-26T06:10:26.010Z,36.33
2019-04-26T06:13:20.649Z,40.27
2019-04-26T06:16:05.737Z,41.50
2019-04-26T06:18:59.578Z,42.63
2019-04-26T06:21:43.462Z,40.73
2019-04-26T06:24:15.324Z,41.23
2019-04-26T06:27:14.256Z,39.80
2019-04-26T06:29:50.379Z,40.73
2019-04-26T06:32:25.507Z,37.03
2019-04-26T06:35:15.328Z,38.43
2019-04-26T06:37:51.413Z,37.00
2019-04-26T06:40:25.774Z,34.57
2019-04-26T06:43:08.302Z,33.40
2019-04-26T06:45:54.288Z,32.30
2019-04-26T06:48:48.624Z,31.33
2019-04-26T06:51:24.531Z,34.77
2019-04-26T06:54:10.259Z,32.63
2019-04-26T06:57:12.670Z,35.47
2019-04-26T06:59:53.606Z,34.47
2019-04-26T07:02:28.446Z,31.73
2019-04-26T07:05:15.249Z,31.13
2019-04-26T07:08:12.629Z,34.27
2019-04-26T07:10:45.214Z,35.13
2019-04-26T07:13:41.234Z,31.80
2019-04-26T07:16:45.182Z,38.20
2019-04-26T07:20:03.993Z,32.90
2019-04-26T07:23:05.943Z,34.97
2019-04-26T07:25:57.869Z,40.40
2019-04-26T07:28:34.390Z,34.83
2019-04-26T07:31:14.803Z,32.43
2019-04-26T07:34:07.652Z,32.97
2019-04-26T07:37:01.894Z,31.90
2019-04-26T07:40:12.184Z,33.03
2019-04-26T07:43:06.017Z,35.33
2019-04-26T07:45:55.897Z,30.37
2019-04-26T07:48:59.435Z,29.37
2019-04-26T07:52:04.691Z,29.17
2019-04-26T07:54:39.411Z,27.70
2019-04-26T07:57:43.350Z,29.10
2019-04-26T08:00:18.241Z,25.70
2019-04-26T08:02:56.940Z,28.97
2019-04-26T08:05:33.419Z,26.20
2019-04-26T08:08:08.645Z,29.63
2019-04-26T08:10:40.302Z,29.60
2019-04-26T08:13:13.080Z,32.20
2019-04-26T08:16:04.849Z,36.43
2019-04-26T08:18:37.807Z,38.07
2019-04-26T08:21:26.025Z,43.20
2019-04-26T08:24:02.170Z,42.60
2019-04-26T08:26:35.512Z,47.17
2019-04-26T08:29:09.188Z,41.90
2019-04-26T08:31:41.392Z,52.60
2019-04-26T08:34:14.938Z,47.80
2019-04-26T08:36:53.118Z,49.07
2019-04-26T08:39:44.556Z,49.07
2019-04-26T08:42:03.803Z,44.47
2019-04-26T08:44:55.443Z,49.87
2019-04-26T08:47:30.567Z,58.93
2019-04-26T08:50:02.298Z,47.90
2019-04-26T08:52:34.148Z,52.20
2019-04-26T08:55:06.158Z,51.67
2019-04-26T08:57:38.980Z,56.67
2019-04-26T09:00:34.781Z,60.93
2019-04-26T09:03:23.654Z,59.37
2019-04-26T09:05:55.373Z,64.40
2019-04-26T09:08:27.228Z,69.03
2019-04-26T09:10:59.541Z,67.03
2019-04-26T09:13:31.513Z,63.30
2019-04-26T09:16:09.881Z,68.50
2019-04-26T09:18:43.345Z,65.23
2019-04-26T09:21:13.307Z,68.93
2019-04-26T09:23:59.384Z,63.50
2019-04-26T09:26:48.114Z,62.67
2019-04-26T09:29:30.578Z,58.20
2019-04-26T09:32:08.395Z,57.20
2019-04-26T09:34:41.212Z,63.97
2019-04-26T09:37:08.499Z,60.37
2019-04-26T09:39:41.628Z,59.93
2019-04-26T09:42:24.768Z,64.53
2019-04-26T09:44:56.865Z,58.03
2019-04-26T09:47:36.697Z,65.37
2019-04-26T09:50:23.897Z,71.30
2019-04-26T09:52:58.319Z,71.93
2019-04-26T09:55:35.352Z,77.00
2019-04-26T09:57:58.186Z,68.70
2019-04-26T10:00:28.916Z,62.90
2019-04-26T10:02:57.886Z,61.33
2019-04-26T10:05:26.845Z,61.50
2019-04-26T10:07:55.820Z,61.60
2019-04-26T10:10:26.617Z,66.93
2019-04-26T10:13:06.276Z,61.57
2019-04-26T10:15:38.956Z,55.80
2019-04-26T10:18:08.259Z,49.93
2019-04-26T10:20:37.334Z,53.23
2019-04-26T10:23:06.467Z,53.67
2019-04-26T10:25:35.384Z,48.63
2019-04-26T10:28:04.387Z,51.67
2019-04-26T10:30:33.371Z,47.30
2019-04-26T10:33:03.432Z,51.00
2019-04-26T10:35:32.769Z,46.53
2019-04-26T10:38:01.715Z,46.27
2019-04-26T10:40:35.785Z,54.10
2019-04-26T10:43:02.123Z,50.00
2019-04-26T10:45:31.203Z,58.83
2019-04-26T10:48:00.229Z,52.10
2019-04-26T10:50:32.954Z,46.60
2019-04-26T10:53:04.280Z,54.50
2019-04-26T10:55:34.972Z,51.33
2019-04-26T10:58:15.002Z,50.20
2019-04-26T11:00:48.375Z,48.13
2019-04-26T11:03:16.066Z,46.13
2019-04-26T11:05:45.231Z,52.33
2019-04-26T11:08:14.194Z,48.97
2019-04-26T11:10:48.901Z,52.20
2019-04-26T11:13:13.971Z,44.87
2019-04-26T11:15:43.033Z,45.60
2019-04-26T11:18:12.594Z,33.20
2019-04-26T11:20:45.524Z,31.23
2019-04-26T11:23:12.911Z,30.10
2019-04-26T11:25:41.941Z,30.03
2019-04-26T11:28:11.134Z,34.10
2019-04-26T11:30:40.285Z,30.27
2019-04-26T11:33:11.164Z,26.87
2019-04-26T11:35:39.850Z,27.87
2019-04-26T11:38:09.043Z,28.70
2019-04-26T11:40:37.934Z,27.80
2019-04-26T11:43:07.153Z,25.40
2019-04-26T11:45:36.059Z,26.03
2019-04-26T11:48:05.461Z,23.27
2019-04-26T11:50:34.524Z,20.67
2019-04-26T11:53:06.169Z,21.40
2019-04-26T11:55:34.283Z,21.83
2019-04-26T11:58:03.290Z,19.10
2019-04-26T12:00:33.780Z,16.77
2019-04-26T12:03:02.748Z,20.63
2019-04-26T12:05:33.733Z,22.03
2019-04-26T12:08:16.474Z,18.37
2019-04-26T12:10:45.907Z,19.93
2019-04-26T12:13:15.283Z,19.80
2019-04-26T12:15:45.415Z,19.37
2019-04-26T12:18:15.446Z,20.67
2019-04-26T12:20:45.786Z,22.43
2019-04-26T12:23:20.568Z,21.70
2019-04-26T12:25:48.060Z,21.77
2019-04-26T12:28:16.351Z,21.63
2019-04-26T12:30:45.708Z,21.70
2019-04-26T12:33:14.809Z,22.20
2019-04-26T12:35:45.254Z,21.30
2019-04-26T12:38:14.145Z,23.63
2019-04-26T12:40:46.166Z,21.47
2019-04-26T12:43:15.608Z,22.93
2019-04-26T12:46:03.862Z,20.33
2019-04-26T12:48:32.771Z,19.40
2019-04-26T12:51:01.725Z,21.17
2019-04-26T12:53:31.336Z,19.07
2019-04-26T12:56:01.238Z,16.03
2019-04-26T12:58:30.144Z,19.73
2019-04-26T13:01:00.700Z,18.53
2019-04-26T13:03:30.406Z,16.27
2019-04-26T13:06:05.492Z,17.20
2019-04-26T13:08:34.778Z,18.57
2019-04-26T13:11:14.494Z,14.83
2019-04-26T13:13:40.111Z,14.13
2019-04-26T13:16:10.721Z,16.20
2019-04-26T13:18:41.214Z,17.30
2019-04-26T13:21:10.234Z,15.13
2019-04-26T13:23:39.148Z,16.77
2019-04-26T13:26:08.099Z,20.60
2019-04-26T13:28:37.014Z,16.27
2019-04-26T13:31:05.959Z,14.07
2019-04-26T13:33:34.874Z,16.20
2019-04-26T13:36:04.150Z,16.37
2019-04-26T13:38:33.139Z,16.23
2019-04-26T13:41:04.540Z,13.67
2019-04-26T13:43:32.633Z,13.40
2019-04-26T13:46:06.002Z,14.30
2019-04-26T13:48:51.842Z,16.33
2019-04-26T13:51:22.365Z,14.97
2019-04-26T13:53:54.195Z,14.47
2019-04-26T13:56:21.862Z,13.37
2019-04-26T13:58:54.452Z,14.07
2019-04-26T14:01:21.315Z,13.70
2019-04-26T14:03:50.218Z,12.77
2019-04-26T14:06:19.123Z,12.83
2019-04-26T14:08:48.067Z,13.33
2019-04-26T14:11:20.506Z,16.60
2019-04-26T14:13:47.561Z,13.07
2019-04-26T14:16:17.083Z,11.97
2019-04-26T14:18:47.540Z,11.57
2019-04-26T14:21:16.437Z,13.37
2019-04-26T14:23:53.119Z,12.83
2019-04-26T14:26:39.870Z,10.77
2019-04-26T14:29:06.752Z,12.20
2019-04-26T14:31:35.658Z,10.07
2019-04-26T14:34:05.374Z,12.07
2019-04-26T14:36:35.264Z,10.67
2019-04-26T14:39:06.380Z,10.63
2019-04-26T14:41:35.445Z,10.40
2019-04-26T14:44:14.857Z,8.53
2019-04-26T14:46:47.963Z,7.90
2019-04-26T14:49:06.100Z,6.97
2019-04-26T14:51:35.007Z,5.80
2019-04-26T14:54:07.408Z,5.53
2019-04-26T14:56:34.492Z,7.13
2019-04-26T14:59:08.179Z,3.10
2019-04-26T15:01:38.550Z,3.00
2019-04-26T15:04:28.080Z,5.77
2019-04-26T15:06:58.196Z,3.23
2019-04-26T15:09:33.326Z,6.10
2019-04-26T15:12:01.118Z,2.00
2019-04-26T15:14:28.517Z,1.97
2019-04-26T15:16:57.522Z,2.93
2019-04-26T15:19:26.548Z,3.77
2019-04-26T15:21:55.447Z,3.90
2019-04-26T15:24:25.893Z,2.50
2019-04-26T15:26:58.182Z,3.93
2019-04-26T15:29:26.832Z,3.00
2019-04-26T15:31:57.275Z,3.13
2019-04-26T15:34:26.816Z,3.90
2019-04-26T15:36:55.725Z,4.77
2019-04-26T15:39:44.405Z,7.73
2019-04-26T15:42:25.215Z,5.27
2019-04-26T15:45:03.430Z,4.90
2019-04-26T15:47:49.205Z,4.80
2019-04-26T15:50:19.715Z,4.43
2019-04-26T15:52:48.617Z,4.10
2019-04-26T15:55:17.557Z,5.07
2019-04-26T15:57:46.460Z,4.87
2019-04-26T16:00:15.668Z,5.43
2019-04-26T16:02:46.677Z,5.03
2019-04-26T16:05:16.943Z,5.20
2019-04-26T16:07:48.457Z,8.43
2019-04-26T16:10:18.349Z,7.80
2019-04-26T16:12:47.462Z,9.80
2019-04-26T16:15:16.512Z,8.63
2019-04-26T16:17:45.452Z,7.77
2019-04-26T16:20:14.644Z,8.97
2019-04-26T16:22:43.764Z,9.63
2019-04-26T16:25:13.043Z,9.77
2019-04-26T16:27:43.172Z,12.17
2019-04-26T16:30:32.602Z,9.23
2019-04-26T16:33:17.435Z,11.53
2019-04-26T16:35:52.501Z,11.17
2019-04-26T16:38:34.687Z,10.23
2019-04-26T16:41:04.556Z,11.23
2019-04-26T16:43:40.013Z,10.67
2019-04-26T16:46:04.690Z,10.80
2019-04-26T16:48:33.628Z,15.17
2019-04-26T16:51:08.549Z,16.67
2019-04-26T16:53:45.843Z,17.23
2019-04-26T16:56:03.926Z,18.67
2019-04-26T16:58:38.382Z,19.97
2019-04-26T17:01:04.676Z,19.47
2019-04-26T17:03:38.240Z,19.93
2019-04-26T17:06:10.826Z,20.10
2019-04-26T17:08:42.916Z,17.70
2019-04-26T17:11:07.652Z,19.57
2019-04-26T17:13:48.408Z,22.03
2019-04-26T17:16:09.851Z,22.27
2019-04-26T17:18:39.006Z,22.23
2019-04-26T17:21:08.213Z,22.13
2019-04-26T17:23:42.127Z,20.03
2019-04-26T17:26:18.783Z,19.53
2019-04-26T17:28:48.132Z,20.40
2019-04-26T17:31:17.585Z,21.30
2019-04-26T17:33:47.338Z,21.47
2019-04-26T17:36:17.932Z,22.13
2019-04-26T17:38:47.383Z,25.10
2019-04-26T17:41:16.322Z,21.70
2019-04-26T17:43:51.871Z,21.67
2019-04-26T17:46:18.284Z,21.33
2019-04-26T17:48:49.541Z,21.47
2019-04-26T17:51:22.909Z,20.93
2019-04-26T17:54:18.460Z,23.27
2019-04-26T17:56:25.963Z,24.97
2019-04-26T17:58:54.731Z,23.67
2019-04-26T18:01:41.802Z,21.97
2019-04-26T18:03:55.883Z,21.50
2019-04-26T18:06:29.971Z,22.47
2019-04-26T18:08:57.529Z,22.37
2019-04-26T18:11:26.813Z,22.40
2019-04-26T18:13:56.484Z,25.43
2019-04-26T18:16:29.391Z,24.77
2019-04-26T18:19:05.396Z,27.13
2019-04-26T18:21:49.542Z,23.00
2019-04-26T18:24:19.362Z,26.03
2019-04-26T18:26:52.351Z,24.53
2019-04-26T18:29:23.728Z,25.17
2019-04-26T18:31:50.456Z,28.47
2019-04-26T18:34:19.379Z,29.07
2019-04-26T18:36:48.380Z,28.23
2019-04-26T18:39:18.075Z,28.47
2019-04-26T18:41:47.925Z,29.80
2019-04-26T18:44:16.871Z,30.10
2019-04-26T18:46:53.615Z,25.30
2019-04-26T18:49:24.983Z,27.57
2019-04-26T18:51:54.616Z,27.93
2019-04-26T18:54:32.836Z,28.47
2019-04-26T18:57:03.225Z,25.23
2019-04-26T18:59:34.013Z,25.63
2019-04-26T19:02:03.965Z,31.87
2019-04-26T19:04:33.580Z,33.00
2019-04-26T19:07:03.585Z,30.63
2019-04-26T19:09:45.272Z,34.87
2019-04-26T19:12:05.852Z,32.53
2019-04-26T19:15:04.201Z,35.47
2019-04-26T19:17:49.141Z,35.03
2019-04-26T19:20:24.019Z,31.43
2019-04-26T19:23:00.833Z,28.17
2019-04-26T19:25:34.502Z,32.13
2019-04-26T19:28:06.621Z,33.30
2019-04-26T19:30:32.498Z,32.43
2019-04-26T19:33:02.454Z,30.40
2019-04-26T19:35:33.274Z,25.17
2019-04-26T19:38:03.271Z,30.07
2019-04-26T19:40:39.362Z,24.90
2019-04-26T19:43:12.612Z,26.87
2019-04-26T19:45:52.027Z,21.77
2019-04-26T19:48:26.082Z,20.40
2019-04-26T19:51:01.669Z,22.27
2019-04-26T19:53:33.303Z,17.50
2019-04-26T19:56:10.534Z,14.57
2019-04-26T19:58:45.797Z,17.53
2019-04-26T20:01:16.586Z,14.43
2019-04-26T20:03:47.263Z,12.30
2019-04-26T20:06:18.815Z,14.90
2019-04-26T20:08:49.561Z,13.30
2019-04-26T20:11:18.808Z,13.77
2019-04-26T20:13:51.758Z,14.67
2019-04-26T20:16:18.980Z,12.03
2019-04-26T20:18:47.871Z,9.90
2019-04-26T20:21:16.813Z,13.40
2019-04-26T20:23:47.462Z,12.60
2019-04-26T20:26:16.407Z,11.30
2019-04-26T20:28:45.315Z,15.17
2019-04-26T20:31:21.879Z,12.03
2019-04-26T20:33:50.783Z,11.93
2019-04-26T20:36:21.542Z,14.13
2019-04-26T20:38:52.069Z,11.93
2019-04-26T20:41:22.035Z,14.03
2019-04-26T20:44:03.111Z,15.43
2019-04-26T20:46:24.921Z,12.47
2019-04-26T20:48:52.326Z,13.93
2019-04-26T20:51:22.473Z,14.43
2019-04-26T20:53:51.849Z,13.63
2019-04-26T20:56:22.461Z,13.53
2019-04-26T20:58:52.262Z,16.80
2019-04-26T21:01:22.382Z,12.90
2019-04-26T21:03:51.799Z,17.43
2019-04-26T21:06:22.205Z,16.53
2019-04-26T21:08:53.792Z,12.77
2019-04-26T21:11:22.005Z,13.00
2019-04-26T21:13:51.946Z,11.47
2019-04-26T21:16:23.609Z,14.37
2019-04-26T21:18:52.559Z,11.90
2019-04-26T21:21:21.790Z,15.17
2019-04-26T21:23:51.755Z,15.77
2019-04-26T21:26:22.283Z,14.30
2019-04-26T21:29:03.328Z,14.07
2019-04-26T21:31:36.140Z,14.03
2019-04-26T21:34:07.960Z,13.50
2019-04-26T21:36:53.350Z,14.73
2019-04-26T21:39:23.885Z,13.90
2019-04-26T21:42:04.443Z,12.23
2019-04-26T21:44:35.512Z,11.10
2019-04-26T21:47:04.527Z,9.80
2019-04-26T21:49:35.766Z,13.93
2019-04-26T21:52:04.297Z,10.47
2019-04-26T21:54:33.197Z,13.23
2019-04-26T21:57:03.697Z,11.20
2019-04-26T21:59:35.170Z,15.97
2019-04-26T22:02:03.458Z,11.97
2019-04-26T22:04:36.360Z,17.70
2019-04-26T22:07:05.254Z,17.90
2019-04-26T22:09:52.874Z,15.13
2019-04-26T22:12:23.320Z,12.67
2019-04-26T22:15:10.312Z,13.67
2019-04-26T22:17:44.369Z,16.40
2019-04-26T22:20:24.043Z,16.70
2019-04-26T22:22:57.014Z,15.03
2019-04-26T22:25:27.486Z,16.60
2019-04-26T22:28:00.242Z,15.23
2019-04-26T22:30:29.539Z,16.87
2019-04-26T22:32:58.728Z,17.40
2019-04-26T22:35:27.617Z,22.17
2019-04-26T22:37:57.014Z,22.13
2019-04-26T22:40:25.908Z,20.17
2019-04-26T22:42:56.423Z,22.50
2019-04-26T22:45:44.115Z,26.77
2019-04-26T22:48:19.185Z,27.70
2019-04-26T22:50:46.153Z,30.03
2019-04-26T22:53:15.115Z,29.20
2019-04-26T22:55:46.171Z,30.93
2019-04-26T22:58:15.113Z,30.27
2019-04-26T23:00:45.430Z,31.70
2019-04-26T23:03:15.100Z,39.80
2019-04-26T23:05:44.001Z,35.43
2019-04-26T23:08:13.582Z,32.37
2019-04-26T23:10:44.242Z,34.43
2019-04-26T23:13:20.435Z,31.73
2019-04-26T23:16:00.619Z,37.13
2019-04-26T23:18:28.954Z,43.53
2019-04-26T23:21:17.566Z,39.93
2019-04-26T23:23:46.618Z,40.53
2019-04-26T23:26:15.543Z,43.70
2019-04-26T23:28:44.494Z,40.70
2019-04-26T23:31:13.512Z,45.63
2019-04-26T23:33:42.922Z,48.53
2019-04-26T23:36:13.467Z,45.60
2019-04-26T23:38:43.868Z,53.27
2019-04-26T23:41:14.258Z,48.00
2019-04-26T23:43:43.394Z,56.30
2019-04-26T23:46:14.391Z,64.70
2019-04-26T23:48:48.841Z,58.70
2019-04-26T23:51:13.474Z,61.73
2019-04-26T23:53:42.855Z,61.30
2019-04-26T23:56:16.282Z,58.47
2019-04-26T23:58:44.039Z,74.03
